Abita Springs, Louisiana
Current Conditions -  °F | °C
As of 8:53 PM on Friday 19 Dec 2014 (Local Time) from KASD Reporting Station
Light Rain Light Rain  
Wind Chill: 45°   Ceiling: 500
Heat Index: 49°   Visibility: 7mi
Dew Point: 46°   Wind: 8mph
Humidity: 90%   Direction: 30°NNE
Pressure: 30.1"   Gusts: NA
Location:  30.48°N, 90.04°W
Report Text: KASD 200253Z AUTO 03007KT 7SM -RA BKN005 OVC021 09/08 A3010 RMK AO2 SLP193 P0013 60016 T00940078 50010
Loading
Personal Weather Stations






























Interactive Weather Map New forecast layout! Learn more

10-Day Weather Forecast

Advertisements
Track Severe Weather on mobile